Holly Bluff, Mississippi
Current Conditions -  °F | °C
As of 6:53 PM on Monday 22 Dec 2014 (Local Time) from KTVR Reporting Station
Scattered Clouds Scattered Clouds  
Wind Chill: 62°   Ceiling: Unl
Heat Index: 62°   Visibility: 10mi
Dew Point: 58°   Wind: 9mph
Humidity: 86%   Direction: 150°SSE
Pressure: 29.65"   Gusts: NA
Location:  32.82°N, 90.71°W
Report Text: KTVR 230053Z AUTO 15008KT 10SM SCT045 17/14 A2965 RMK AO2 SLP047 T01670144
Loading
Personal Weather Stations






























Interactive Weather Map New forecast layout! Learn more

10-Day Weather Forecast

Advertisements
Track Severe Weather on mobile